Time;durP1;ratioP1;P1;durP2;ratioP2;P2;SDS_P1;SDS_P2;PMS_P1;PMS_P2;Temp;Humidity;BMP_temperature;BMP_pressure;BME280_temperature;BME280_humidity;BME280_pressure;Samples;Min_cycle;Max_cycle;Signal;HPM_P1;HPM_P2
2024/01/17 00:00:38;;;;;;;;;;;26.50;2201.60;;;;;;4920653;29;19906;-79
2024/01/17 00:03:06;;;;;;;;;;;26.50;2201.60;;;;;;4933442;29;19907;-81
2024/01/17 00:05:32;;;;;;;;;;;26.50;2201.60;;;;;;4910731;29;19907;-79
2024/01/17 00:07:58;;;;;;;;;;;51.30;2227.20;;;;;;4937287;29;19915;-80
2024/01/17 00:10:24;;;;;;;;;;;51.40;2227.20;;;;;;4919548;29;20390;-79
2024/01/17 00:12:50;;;;;;;;;;;51.40;2227.20;;;;;;4937692;29;19957;-80
2024/01/17 00:15:18;;;;;;;;;;;51.40;2227.20;;;;;;4934492;29;19907;-78
2024/01/17 00:17:44;;;;;;;;;;;51.40;2227.20;;;;;;4936132;29;19942;-78
2024/01/17 00:20:11;;;;;;;;;;;51.50;2227.20;;;;;;4919169;29;19911;-79
2024/01/17 00:22:37;;;;;;;;;;;51.40;2227.20;;;;;;4914201;29;19928;-77
2024/01/17 00:25:03;;;;;;;;;;;51.40;2227.20;;;;;;4919704;29;19993;-79
2024/01/17 00:27:29;;;;;;;;;;;51.30;2227.20;;;;;;4918941;29;19914;-81
2024/01/17 00:29:57;;;;;;;;;;;51.50;2227.20;;;;;;4934991;29;20001;-78
2024/01/17 00:32:23;;;;;;;;;;;51.30;2227.20;;;;;;4919529;29;19965;-81
2024/01/17 00:34:49;;;;;;;;;;;51.40;2227.20;;;;;;4937358;29;19906;-80
2024/01/17 00:37:14;;;;;;;;;;;51.40;2227.20;;;;;;4919995;29;19970;-80
2024/01/17 00:39:40;;;;;;;;;;;51.40;2227.20;;;;;;4915930;29;19914;-79
2024/01/17 00:42:06;;;;;;;;;;;51.50;2227.20;;;;;;4936531;29;19907;-78
2024/01/17 00:44:32;;;;;;;;;;;51.50;2227.20;;;;;;4922007;29;19990;-80
2024/01/17 00:46:57;;;;;;;;;;;51.40;2227.20;;;;;;4916230;29;19926;-80
2024/01/17 00:49:23;;;;;;;;;;;51.50;2227.20;;;;;;4937197;29;19907;-80
2024/01/17 00:51:49;;;;;;;;;;;51.50;2227.20;;;;;;4936831;29;19918;-78
2024/01/17 00:54:14;;;;;;;;;;;51.60;2227.20;;;;;;4935862;29;19911;-78
2024/01/17 00:56:40;;;;;;;;;;;51.60;2227.20;;;;;;4956756;29;19950;-80
2024/01/17 00:59:05;;;;;;;;;;;51.60;2227.20;;;;;;4956584;29;19997;-81
2024/01/17 01:01:31;;;;;;;;;;;51.60;2227.20;;;;;;4939424;29;19913;-81
2024/01/17 01:03:57;;;;;;;;;;;51.70;2227.20;;;;;;4956737;29;19942;-81
2024/01/17 01:06:23;;;;;;;;;;;51.60;2227.20;;;;;;4939476;29;19914;-80
2024/01/17 01:08:49;;;;;;;;;;;51.70;2227.20;;;;;;4939921;29;20001;-80
2024/01/17 01:11:14;;;;;;;;;;;51.70;2227.20;;;;;;4939425;29;19906;-80
2024/01/17 01:13:40;;;;;;;;;;;51.70;2227.20;;;;;;4939136;29;19906;-79
2024/01/17 01:16:09;;;;;;;;;;;51.50;2227.20;;;;;;4939662;29;20504;-81
2024/01/17 01:18:35;;;;;;;;;;;51.40;2227.20;;;;;;4939488;29;19906;-82
2024/01/17 01:21:01;;;;;;;;;;;51.30;2227.20;;;;;;4939202;29;19922;-79
2024/01/17 01:23:27;;;;;;;;;;;51.30;2227.20;;;;;;4956558;29;19915;-81
2024/01/17 01:25:53;;;;;;;;;;;51.20;2227.20;;;;;;4939045;29;19999;-84
2024/01/17 01:28:19;;;;;;;;;;;51.30;2227.20;;;;;;4939942;29;20389;-87
2024/01/17 01:30:44;;;;;;;;;;;51.30;2227.20;;;;;;4940440;29;19907;-84
2024/01/17 01:33:10;;;;;;;;;;;51.30;2227.20;;;;;;4942549;29;19910;-83
2024/01/17 01:35:35;;;;;;;;;;;51.30;2227.20;;;;;;4959731;29;19906;-81
2024/01/17 01:38:01;;;;;;;;;;;51.30;2227.20;;;;;;4943797;29;19906;-86
2024/01/17 01:40:27;;;;;;;;;;;51.30;2227.20;;;;;;4942837;29;19913;-87
2024/01/17 01:42:53;;;;;;;;;;;51.30;2227.20;;;;;;4943810;29;19907;-82
2024/01/17 01:45:19;;;;;;;;;;;51.30;2227.20;;;;;;4943725;29;20345;-85
2024/01/17 01:47:45;;;;;;;;;;;51.30;2227.20;;;;;;4943604;29;19918;-83
2024/01/17 01:50:11;;;;;;;;;;;51.30;2227.20;;;;;;4919349;29;19911;-88
2024/01/17 01:52:38;;;;;;;;;;;51.30;2227.20;;;;;;4913815;29;19922;-88
2024/01/17 01:55:05;;;;;;;;;;;51.40;2227.20;;;;;;4918761;29;19911;-88
2024/01/17 01:57:31;;;;;;;;;;;51.40;2227.20;;;;;;4915856;29;19955;-87
2024/01/17 01:59:56;;;;;;;;;;;51.40;2227.20;;;;;;4917626;29;19911;-85
2024/01/17 02:02:23;;;;;;;;;;;51.50;2227.20;;;;;;4911034;29;20329;-82
2024/01/17 02:04:50;;;;;;;;;;;51.50;2227.20;;;;;;4926670;29;19929;-88
2024/01/17 02:07:16;;;;;;;;;;;51.50;2227.20;;;;;;4920886;29;19925;-88
2024/01/17 02:09:44;;;;;;;;;;;51.50;2227.20;;;;;;4923467;29;19971;-86
2024/01/17 02:12:10;;;;;;;;;;;51.40;2227.20;;;;;;4916859;29;20373;-86
2024/01/17 02:14:39;;;;;;;;;;;51.40;2227.20;;;;;;4931058;29;19911;-85
2024/01/17 02:19:33;;;;;;;;;;;51.50;2227.20;;;;;;1379697;23;19925;-79
2024/01/17 02:21:58;;;;;;;;;;;51.50;2227.20;;;;;;4915853;29;19938;-84
2024/01/17 02:24:24;;;;;;;;;;;51.50;2227.20;;;;;;4910417;29;19912;-82
2024/01/17 02:26:50;;;;;;;;;;;51.50;2227.20;;;;;;4884578;29;20021;-82
2024/01/17 02:29:17;;;;;;;;;;;51.50;2227.20;;;;;;4914144;29;20026;-89
2024/01/17 02:31:44;;;;;;;;;;;51.50;2227.20;;;;;;4908648;29;19953;-88
2024/01/17 02:34:10;;;;;;;;;;;51.40;2227.20;;;;;;4901782;29;19911;-85
2024/01/17 02:36:35;;;;;;;;;;;51.40;2227.20;;;;;;4916543;29;19907;-88
2024/01/17 02:39:01;;;;;;;;;;;51.40;2227.20;;;;;;4887488;29;19911;-85
2024/01/17 02:41:26;;;;;;;;;;;51.50;2227.20;;;;;;4900651;29;19942;-84
2024/01/17 02:43:52;;;;;;;;;;;51.50;2227.20;;;;;;4902580;29;19918;-88
2024/01/17 02:46:18;;;;;;;;;;;51.50;2227.20;;;;;;4887493;29;19962;-87
2024/01/17 02:48:43;;;;;;;;;;;51.50;2227.20;;;;;;4895583;29;19965;-89
2024/01/17 02:51:09;;;;;;;;;;;51.50;2227.20;;;;;;4899375;29;19920;-88
2024/01/17 02:53:35;;;;;;;;;;;51.50;2227.20;;;;;;4901990;29;19986;-82
2024/01/17 02:56:00;;;;;;;;;;;51.40;2227.20;;;;;;4902967;29;19914;-88
2024/01/17 02:58:26;;;;;;;;;;;51.40;2227.20;;;;;;4902716;29;20344;-86
2024/01/17 03:00:52;;;;;;;;;;;51.40;2227.20;;;;;;4919973;29;19910;-88
2024/01/17 03:03:17;;;;;;;;;;;51.40;2227.20;;;;;;4901529;29;19965;-83
2024/01/17 03:05:43;;;;;;;;;;;51.40;2227.20;;;;;;4902092;29;19966;-83
2024/01/17 03:08:08;;;;;;;;;;;51.40;2227.20;;;;;;4898216;29;20002;-87
2024/01/17 03:10:35;;;;;;;;;;;51.40;2227.20;;;;;;4901544;29;19907;-87
2024/01/17 03:13:01;;;;;;;;;;;51.40;2227.20;;;;;;4902647;29;19907;-87
2024/01/17 03:15:26;;;;;;;;;;;51.40;2227.20;;;;;;4895791;29;19970;-83
2024/01/17 03:17:52;;;;;;;;;;;51.40;2227.20;;;;;;4896724;29;19908;-83
2024/01/17 03:20:18;;;;;;;;;;;51.30;2227.20;;;;;;4897477;29;20381;-83
2024/01/17 03:22:44;;;;;;;;;;;51.80;2227.20;;;;;;4910858;29;20293;-87
2024/01/17 03:25:10;;;;;;;;;;;51.40;2227.20;;;;;;4898517;29;19907;-86
2024/01/17 03:27:36;;;;;;;;;;;51.40;2227.20;;;;;;4899013;29;19982;-87
2024/01/17 03:30:03;;;;;;;;;;;51.40;2227.20;;;;;;4896407;29;19911;-86
2024/01/17 03:32:30;;;;;;;;;;;51.30;2227.20;;;;;;4897865;29;19940;-86
2024/01/17 03:34:57;;;;;;;;;;;51.30;2227.20;;;;;;4902151;29;19911;-88
2024/01/17 03:37:23;;;;;;;;;;;51.50;2227.20;;;;;;4891927;29;19932;-83
2024/01/17 03:39:49;;;;;;;;;;;51.40;2227.20;;;;;;4899714;29;19911;-81
2024/01/17 03:42:16;;;;;;;;;;;51.50;2227.20;;;;;;4890768;29;19962;-88
2024/01/17 03:44:45;;;;;;;;;;;51.40;2227.20;;;;;;4902348;29;19953;-84
2024/01/17 03:47:11;;;;;;;;;;;51.30;2227.20;;;;;;4889891;29;19923;-88
2024/01/17 03:49:37;;;;;;;;;;;51.40;2227.20;;;;;;4912003;29;19912;-88
2024/01/17 03:52:03;;;;;;;;;;;51.30;2227.20;;;;;;4897414;29;19918;-87
2024/01/17 03:54:28;;;;;;;;;;;51.30;2227.20;;;;;;4900431;29;19997;-84
2024/01/17 03:56:54;;;;;;;;;;;51.30;2227.20;;;;;;4896014;29;19911;-87
2024/01/17 03:59:20;;;;;;;;;;;51.40;2227.20;;;;;;4917449;29;19914;-87
2024/01/17 04:01:46;;;;;;;;;;;51.30;2227.20;;;;;;4895735;29;20277;-87
2024/01/17 04:04:11;;;;;;;;;;;51.30;2227.20;;;;;;4890674;29;20255;-86
2024/01/17 04:06:37;;;;;;;;;;;51.30;2227.20;;;;;;4901667;29;19915;-82
2024/01/17 04:09:03;;;;;;;;;;;51.40;2227.20;;;;;;4907373;29;19907;-88
2024/01/17 04:11:28;;;;;;;;;;;51.40;2227.20;;;;;;4905092;29;20345;-82
2024/01/17 04:13:55;;;;;;;;;;;51.50;2227.20;;;;;;4901627;29;19907;-85
2024/01/17 04:16:21;;;;;;;;;;;51.60;2227.20;;;;;;4917344;29;19918;-85
2024/01/17 04:18:46;;;;;;;;;;;51.60;2227.20;;;;;;4902657;29;19911;-87
2024/01/17 04:21:16;;;;;;;;;;;51.60;2227.20;;;;;;4907545;29;19919;-87
2024/01/17 04:23:41;;;;;;;;;;;51.60;2227.20;;;;;;4914839;29;19900;-87
2024/01/17 04:26:07;;;;;;;;;;;51.70;2227.20;;;;;;4916642;29;19947;-87
2024/01/17 04:28:32;;;;;;;;;;;51.60;2227.20;;;;;;4921502;29;19954;-84
2024/01/17 04:30:58;;;;;;;;;;;51.60;2227.20;;;;;;4898839;29;19941;-87
2024/01/17 04:33:24;;;;;;;;;;;51.70;2227.20;;;;;;4896836;29;19907;-87
2024/01/17 04:35:49;;;;;;;;;;;51.70;2227.20;;;;;;4897327;29;20379;-84
2024/01/17 04:38:15;;;;;;;;;;;51.70;2227.20;;;;;;4901030;29;19907;-83
2024/01/17 04:40:40;;;;;;;;;;;51.80;2227.20;;;;;;4913826;29;19911;-82
2024/01/17 04:43:06;;;;;;;;;;;51.80;2227.20;;;;;;4895076;29;19914;-82
2024/01/17 04:45:32;;;;;;;;;;;51.90;2227.20;;;;;;4903409;29;20292;-87
2024/01/17 04:47:57;;;;;;;;;;;51.90;2227.20;;;;;;4900699;29;19911;-88
2024/01/17 04:50:23;;;;;;;;;;;52.00;2227.20;;;;;;4895243;29;19919;-86
2024/01/17 04:52:50;;;;;;;;;;;52.00;2227.20;;;;;;4912158;29;19955;-87
2024/01/17 04:55:15;;;;;;;;;;;52.00;2227.20;;;;;;4917498;29;19907;-86
2024/01/17 04:57:41;;;;;;;;;;;52.00;2227.20;;;;;;4900761;29;19909;-87
2024/01/17 05:00:08;;;;;;;;;;;52.00;2227.20;;;;;;4898394;29;19907;-88
2024/01/17 05:02:34;;;;;;;;;;;52.10;2227.20;;;;;;4887552;29;19919;-87
2024/01/17 05:05:00;;;;;;;;;;;52.10;2227.20;;;;;;4897041;29;19907;-87
2024/01/17 05:07:25;;;;;;;;;;;52.10;2227.20;;;;;;4900033;29;19922;-86
2024/01/17 05:09:51;;;;;;;;;;;52.10;2227.20;;;;;;4915393;29;19911;-87
2024/01/17 05:12:16;;;;;;;;;;;52.10;2227.20;;;;;;4896914;29;19930;-86
2024/01/17 05:14:42;;;;;;;;;;;52.00;2227.20;;;;;;4899745;29;19911;-87
2024/01/17 05:17:08;;;;;;;;;;;52.10;2227.20;;;;;;4915312;29;19907;-86
2024/01/17 05:19:33;;;;;;;;;;;52.10;2227.20;;;;;;4892696;29;20006;-86
2024/01/17 05:21:59;;;;;;;;;;;52.00;2227.20;;;;;;4892155;29;19979;-86
2024/01/17 05:24:25;;;;;;;;;;;52.10;2227.20;;;;;;4908724;29;19908;-81
2024/01/17 05:26:51;;;;;;;;;;;52.10;2227.20;;;;;;4914356;29;19966;-81
2024/01/17 05:29:17;;;;;;;;;;;52.10;2227.20;;;;;;4916126;29;20415;-82
2024/01/17 05:31:42;;;;;;;;;;;52.10;2227.20;;;;;;4900404;29;19993;-83
2024/01/17 05:34:08;;;;;;;;;;;52.10;2227.20;;;;;;4894655;29;20357;-82
2024/01/17 05:36:34;;;;;;;;;;;76.80;2227.20;;;;;;4891206;29;19908;-82
2024/01/17 05:38:59;;;;;;;;;;;52.10;2227.20;;;;;;4897052;29;19915;-82
2024/01/17 05:41:25;;;;;;;;;;;52.10;2227.20;;;;;;4899041;29;19907;-82
2024/01/17 05:43:50;;;;;;;;;;;76.80;2227.20;;;;;;4895827;29;19914;-82
2024/01/17 05:46:16;;;;;;;;;;;76.80;2227.20;;;;;;4893082;29;19911;-82
2024/01/17 05:48:42;;;;;;;;;;;52.10;2227.20;;;;;;4900049;29;20246;-82
2024/01/17 05:51:08;;;;;;;;;;;52.10;2227.20;;;;;;4905403;29;19915;-82
2024/01/17 05:53:33;;;;;;;;;;;52.10;2227.20;;;;;;4911742;29;20368;-82
2024/01/17 05:55:59;;;;;;;;;;;76.80;2227.20;;;;;;4915488;29;19911;-82
2024/01/17 05:58:24;;;;;;;;;;;76.80;2227.20;;;;;;4899861;29;19919;-82
2024/01/17 06:00:50;;;;;;;;;;;76.80;2227.20;;;;;;4913577;29;19933;-82
2024/01/17 06:03:16;;;;;;;;;;;76.90;2227.20;;;;;;4913743;29;19989;-82
2024/01/17 06:05:41;;;;;;;;;;;76.90;2227.20;;;;;;4917137;29;20013;-82
2024/01/17 06:08:07;;;;;;;;;;;76.90;2227.20;;;;;;4900285;29;20292;-83
2024/01/17 06:10:33;;;;;;;;;;;76.90;2227.20;;;;;;4917605;29;19958;-81
2024/01/17 06:12:59;;;;;;;;;;;77.00;2227.20;;;;;;4898352;29;19934;-85
2024/01/17 06:15:24;;;;;;;;;;;77.00;2227.20;;;;;;4893577;29;20310;-83
2024/01/17 06:17:50;;;;;;;;;;;77.00;2227.20;;;;;;4914312;29;19914;-84
2024/01/17 06:20:16;;;;;;;;;;;77.10;2227.20;;;;;;4899963;29;19923;-84
2024/01/17 06:22:42;;;;;;;;;;;77.20;2227.20;;;;;;4904946;29;19953;-84
2024/01/17 06:25:08;;;;;;;;;;;77.20;2227.20;;;;;;4904289;29;20277;-84
2024/01/17 06:27:34;;;;;;;;;;;77.20;2227.20;;;;;;4899240;29;19916;-86
2024/01/17 06:29:59;;;;;;;;;;;77.20;2227.20;;;;;;4904332;29;19963;-84
2024/01/17 06:32:25;;;;;;;;;;;77.30;2227.20;;;;;;4894260;29;19914;-86
2024/01/17 06:34:51;;;;;;;;;;;77.30;2227.20;;;;;;4903271;29;19911;-84
2024/01/17 06:37:16;;;;;;;;;;;77.30;2227.20;;;;;;4903375;29;19907;-84
2024/01/17 06:39:43;;;;;;;;;;;77.30;2227.20;;;;;;4919422;29;19915;-83
2024/01/17 06:42:09;;;;;;;;;;;77.40;2227.20;;;;;;4902582;29;19918;-82
2024/01/17 06:44:35;;;;;;;;;;;77.40;2227.20;;;;;;4903326;29;19949;-83
2024/01/17 06:47:01;;;;;;;;;;;77.40;2227.20;;;;;;4906660;29;19979;-81
2024/01/17 06:49:27;;;;;;;;;;;77.40;2227.20;;;;;;4903000;29;20282;-88
2024/01/17 06:51:52;;;;;;;;;;;77.50;2227.20;;;;;;4902837;29;19911;-88
2024/01/17 06:54:18;;;;;;;;;;;77.50;2227.20;;;;;;4902516;29;19997;-85
2024/01/17 06:56:44;;;;;;;;;;;77.50;2227.20;;;;;;4909619;29;19907;-81
2024/01/17 06:59:10;;;;;;;;;;;77.60;2227.20;;;;;;4903080;29;19942;-83
2024/01/17 07:01:36;;;;;;;;;;;77.60;2227.20;;;;;;4901396;29;19955;-82
2024/01/17 07:04:02;;;;;;;;;;;77.60;2227.20;;;;;;4903211;29;19907;-79
2024/01/17 07:06:28;;;;;;;;;;;77.70;2227.20;;;;;;4902554;29;19922;-82
2024/01/17 07:08:53;;;;;;;;;;;77.70;2227.20;;;;;;4897911;29;19907;-81
2024/01/17 07:11:19;;;;;;;;;;;77.70;2227.20;;;;;;4904117;29;19915;-80
2024/01/17 07:13:44;;;;;;;;;;;77.70;2227.20;;;;;;4907792;29;19907;-83
2024/01/17 07:16:13;;;;;;;;;;;102.40;2227.20;;;;;;4920331;29;19911;-85
2024/01/17 07:18:39;;;;;;;;;;;102.50;2227.20;;;;;;4893675;29;19911;-83
2024/01/17 07:21:06;;;;;;;;;;;102.50;2227.20;;;;;;4902786;29;19980;-84
2024/01/17 07:23:32;;;;;;;;;;;102.90;2227.20;;;;;;4906371;29;20010;-78
2024/01/17 07:25:58;;;;;;;;;;;102.50;2227.20;;;;;;4898435;29;19950;-81
2024/01/17 07:28:24;;;;;;;;;;;102.50;2227.20;;;;;;4902153;29;19907;-83
2024/01/17 07:30:50;;;;;;;;;;;102.50;2227.20;;;;;;4903832;29;19911;-83
2024/01/17 07:33:15;;;;;;;;;;;102.50;2227.20;;;;;;4912251;29;19938;-84
2024/01/17 07:35:41;;;;;;;;;;;102.50;2227.20;;;;;;4903525;29;20010;-83
2024/01/17 07:38:07;;;;;;;;;;;102.50;2227.20;;;;;;4903687;29;19907;-80
2024/01/17 07:40:33;;;;;;;;;;;102.60;2227.20;;;;;;4936700;29;20002;-86
2024/01/17 07:42:59;;;;;;;;;;;77.70;2227.20;;;;;;4921230;29;19919;-82
2024/01/17 07:45:25;;;;;;;;;;;102.60;2227.20;;;;;;4924750;29;19899;-83
2024/01/17 07:47:50;;;;;;;;;;;102.70;2227.20;;;;;;4906741;29;19922;-86
2024/01/17 07:50:16;;;;;;;;;;;102.60;2227.20;;;;;;4901738;29;19963;-80
2024/01/17 07:52:41;;;;;;;;;;;102.60;2227.20;;;;;;4901983;29;20354;-83
2024/01/17 07:55:07;;;;;;;;;;;102.70;2227.20;;;;;;4896991;29;19975;-81
2024/01/17 07:57:33;;;;;;;;;;;102.70;2227.20;;;;;;4901677;29;20050;-79
2024/01/17 07:59:58;;;;;;;;;;;102.70;2227.20;;;;;;4890499;29;19930;-80
2024/01/17 08:02:25;;;;;;;;;;;102.70;2227.20;;;;;;4918028;29;19950;-81
2024/01/17 08:04:52;;;;;;;;;;;102.70;2227.20;;;;;;4901608;29;19907;-82
2024/01/17 08:07:20;;;;;;;;;;;102.70;2227.20;;;;;;4899612;29;19930;-79
2024/01/17 08:09:46;;;;;;;;;;;102.60;2227.20;;;;;;4898985;29;19955;-82
2024/01/17 08:12:11;;;;;;;;;;;102.80;2227.20;;;;;;4902397;29;19907;-80
2024/01/17 08:14:37;;;;;;;;;;;102.70;2227.20;;;;;;4896479;29;20360;-83
2024/01/17 08:17:03;;;;;;;;;;;102.80;2227.20;;;;;;4899502;29;19997;-82
2024/01/17 08:19:28;;;;;;;;;;;102.70;2227.20;;;;;;4917582;29;19914;-82
2024/01/17 08:21:54;;;;;;;;;;;102.80;2227.20;;;;;;4901298;29;19926;-88
2024/01/17 08:24:20;;;;;;;;;;;102.70;2227.20;;;;;;4902076;29;19915;-83
2024/01/17 08:26:45;;;;;;;;;;;102.70;2227.20;;;;;;4914403;29;19915;-87
2024/01/17 08:29:16;;;;;;;;;;;102.70;2227.20;;;;;;4902013;29;19907;-86
2024/01/17 08:31:42;;;;;;;;;;;102.70;2227.20;;;;;;4902055;29;19907;-84
2024/01/17 08:34:07;;;;;;;;;;;102.70;2227.20;;;;;;4899295;29;20062;-87
2024/01/17 08:36:33;;;;;;;;;;;102.80;2227.20;;;;;;4901049;29;19966;-80
2024/01/17 08:38:59;;;;;;;;;;;102.80;2227.20;;;;;;4899528;29;19950;-82
2024/01/17 08:41:24;;;;;;;;;;;103.00;2227.20;;;;;;4901774;29;19907;-85
2024/01/17 08:43:50;;;;;;;;;;;102.90;2227.20;;;;;;4901201;29;20456;-87
2024/01/17 08:46:16;;;;;;;;;;;103.00;2227.20;;;;;;4918101;29;19911;-85
2024/01/17 08:48:41;;;;;;;;;;;103.00;2227.20;;;;;;4901541;29;19954;-88
2024/01/17 08:51:08;;;;;;;;;;;103.00;2227.20;;;;;;4901035;29;20018;-84
2024/01/17 08:53:34;;;;;;;;;;;103.10;2227.20;;;;;;4901985;29;20400;-82
2024/01/17 08:56:01;;;;;;;;;;;103.20;2227.20;;;;;;4896866;29;19967;-85
2024/01/17 08:58:27;;;;;;;;;;;103.20;2227.20;;;;;;4907085;29;19914;-80
2024/01/17 09:00:53;;;;;;;;;;;103.10;2227.20;;;;;;4896051;29;19907;-80
2024/01/17 09:03:18;;;;;;;;;;;103.10;2227.20;;;;;;4910577;29;20349;-79
2024/01/17 09:05:44;;;;;;;;;;;103.30;2227.20;;;;;;4903879;29;19955;-79
2024/01/17 09:08:10;;;;;;;;;;;103.30;2227.20;;;;;;4899717;29;19911;-79
2024/01/17 09:10:35;;;;;;;;;;;128.00;2252.80;;;;;;4898190;29;19942;-78
2024/01/17 09:13:01;;;;;;;;;;;103.30;2227.20;;;;;;4897452;29;19907;-80
2024/01/17 09:15:26;;;;;;;;;;;103.30;2227.20;;;;;;4896419;29;19914;-80
2024/01/17 09:17:52;;;;;;;;;;;128.00;2252.80;;;;;;4900302;29;20373;-79
2024/01/17 09:20:18;;;;;;;;;;;128.10;2252.80;;;;;;4900614;29;20309;-79
2024/01/17 09:22:43;;;;;;;;;;;128.20;2252.80;;;;;;4900172;29;19911;-83
2024/01/17 09:25:09;;;;;;;;;;;128.20;2252.80;;;;;;4916215;29;19915;-78
2024/01/17 09:27:35;;;;;;;;;;;128.10;2252.80;;;;;;4898052;29;20017;-79
2024/01/17 09:30:02;;;;;;;;;;;128.00;2252.80;;;;;;4916313;29;19911;-76
2024/01/17 09:32:28;;;;;;;;;;;128.00;2252.80;;;;;;4890679;29;19918;-80
2024/01/17 09:34:53;;;;;;;;;;;128.00;2252.80;;;;;;4900479;29;19908;-79
2024/01/17 09:37:19;;;;;;;;;;;128.10;2252.80;;;;;;4917012;29;19911;-82
2024/01/17 09:39:45;;;;;;;;;;;128.10;2252.80;;;;;;4903557;29;19954;-82
2024/01/17 09:42:12;;;;;;;;;;;128.00;2252.80;;;;;;4917803;29;19913;-81
2024/01/17 09:44:38;;;;;;;;;;;128.10;2252.80;;;;;;4899258;29;19911;-77
2024/01/17 09:47:04;;;;;;;;;;;128.10;2252.80;;;;;;4899121;29;19926;-80
2024/01/17 09:49:31;;;;;;;;;;;128.10;2252.80;;;;;;4897765;29;19922;-80
2024/01/17 09:51:58;;;;;;;;;;;128.10;2252.80;;;;;;4918476;29;19911;-80
2024/01/17 09:54:27;;;;;;;;;;;128.10;2252.80;;;;;;4919081;29;19961;-79
2024/01/17 09:56:55;;;;;;;;;;;128.10;2252.80;;;;;;4899357;29;19915;-79
2024/01/17 09:59:27;;;;;;;;;;;128.10;2252.80;;;;;;4902495;29;19911;-83
2024/01/17 10:01:56;;;;;;;;;;;128.20;2252.80;;;;;;4903717;29;19907;-81
2024/01/17 10:04:24;;;;;;;;;;;128.20;2252.80;;;;;;4897334;29;19943;-79
2024/01/17 10:06:50;;;;;;;;;;;128.20;2252.80;;;;;;4903443;29;19919;-79
2024/01/17 10:09:15;;;;;;;;;;;128.30;2252.80;;;;;;4920090;29;19930;-77
2024/01/17 10:11:41;;;;;;;;;;;128.30;2252.80;;;;;;4919292;29;20010;-80
2024/01/17 10:14:10;;;;;;;;;;;128.30;2252.80;;;;;;4903863;29;19911;-78
2024/01/17 10:16:35;;;;;;;;;;;128.40;2252.80;;;;;;4903346;29;19906;-81
2024/01/17 10:19:04;;;;;;;;;;;128.50;2252.80;;;;;;4903744;29;20381;-79
2024/01/17 10:21:33;;;;;;;;;;;128.70;2252.80;;;;;;4903611;29;19982;-81
2024/01/17 10:23:59;;;;;;;;;;;128.70;2252.80;;;;;;4895199;29;19911;-83
2024/01/17 10:26:25;;;;;;;;;;;128.80;2252.80;;;;;;4896137;29;19919;-83
2024/01/17 10:28:51;;;;;;;;;;;128.90;2252.80;;;;;;4915034;29;20266;-79
2024/01/17 10:31:19;;;;;;;;;;;128.90;2252.80;;;;;;4901700;29;19958;-81
2024/01/17 10:33:45;;;;;;;;;;;153.60;2252.80;;;;;;4903170;29;19911;-84
2024/01/17 10:36:11;;;;;;;;;;;153.60;2252.80;;;;;;4891825;29;19907;-81
2024/01/17 10:38:37;;;;;;;;;;;153.60;2252.80;;;;;;4898542;29;19914;-80
2024/01/17 10:41:04;;;;;;;;;;;153.60;2252.80;;;;;;4919161;29;19994;-83
2024/01/17 10:43:29;;;;;;;;;;;153.70;2252.80;;;;;;4903761;29;19957;-81
2024/01/17 10:45:55;;;;;;;;;;;153.70;2252.80;;;;;;4904175;29;20369;-80
2024/01/17 10:48:22;;;;;;;;;;;153.70;2252.80;;;;;;4910644;29;19944;-79
2024/01/17 10:50:48;;;;;;;;;;;153.70;2252.80;;;;;;4911496;29;19921;-80
2024/01/17 10:53:15;;;;;;;;;;;153.80;2252.80;;;;;;4941943;29;19891;-80
2024/01/17 10:55:45;;;;;;;;;;;153.80;2252.80;;;;;;4927715;29;19911;-80
2024/01/17 10:58:13;;;;;;;;;;;153.80;2252.80;;;;;;4920388;29;19907;-82
2024/01/17 11:00:43;;;;;;;;;;;153.90;2252.80;;;;;;4904083;29;19907;-81
2024/01/17 11:03:12;;;;;;;;;;;154.00;2252.80;;;;;;4903651;29;19954;-81
2024/01/17 11:05:48;;;;;;;;;;;154.00;2252.80;;;;;;4903040;29;19926;-81
2024/01/17 11:08:14;;;;;;;;;;;153.90;2252.80;;;;;;4896693;29;19915;-82
2024/01/17 11:10:40;;;;;;;;;;;154.10;2252.80;;;;;;4896486;29;19966;-82
2024/01/17 11:13:06;;;;;;;;;;;154.10;2252.80;;;;;;4903537;29;19907;-87
2024/01/17 11:15:34;;;;;;;;;;;154.10;2252.80;;;;;;4919782;29;19907;-82
2024/01/17 11:17:59;;;;;;;;;;;154.20;2252.80;;;;;;4902489;29;19990;-81
2024/01/17 11:20:25;;;;;;;;;;;154.20;2252.80;;;;;;4917412;29;19972;-80
2024/01/17 11:22:51;;;;;;;;;;;154.30;2252.80;;;;;;4915610;29;20261;-82
2024/01/17 11:25:17;;;;;;;;;;;154.30;2252.80;;;;;;4901260;29;19973;-81
2024/01/17 11:27:47;;;;;;;;;;;154.40;2252.80;;;;;;4915612;29;20388;-82
2024/01/17 11:30:12;;;;;;;;;;;154.50;2252.80;;;;;;4903421;29;19914;-82
2024/01/17 11:32:50;;;;;;;;;;;179.20;2252.80;;;;;;4919736;29;20302;-87
2024/01/17 11:35:35;;;;;;;;;;;179.20;2252.80;;;;;;4892680;29;19997;-82
2024/01/17 11:38:02;;;;;;;;;;;179.20;2252.80;;;;;;4894582;29;19913;-79
2024/01/17 11:40:28;;;;;;;;;;;179.30;2252.80;;;;;;4902012;29;19915;-79
2024/01/17 11:42:54;;;;;;;;;;;179.30;2252.80;;;;;;4902966;29;19907;-83
2024/01/17 11:45:20;;;;;;;;;;;179.40;2252.80;;;;;;4919173;29;19911;-80
2024/01/17 11:47:52;;;;;;;;;;;179.40;2252.80;;;;;;4902141;29;19922;-80
2024/01/17 11:50:20;;;;;;;;;;;179.40;2252.80;;;;;;4902289;29;19950;-80
2024/01/17 11:52:45;;;;;;;;;;;179.40;2252.80;;;;;;4916220;29;19914;-80
2024/01/17 11:55:11;;;;;;;;;;;179.40;2252.80;;;;;;4902105;29;19907;-82
2024/01/17 11:57:37;;;;;;;;;;;179.50;2252.80;;;;;;4919172;29;19911;-84
2024/01/17 12:00:04;;;;;;;;;;;179.60;2252.80;;;;;;4902210;29;19908;-80
2024/01/17 12:02:40;;;;;;;;;;;179.60;2252.80;;;;;;4902344;29;19927;-80
2024/01/17 12:05:09;;;;;;;;;;;179.70;2252.80;;;;;;4909561;29;19910;-85
2024/01/17 12:07:42;;;;;;;;;;;179.90;2252.80;;;;;;4912381;29;19915;-79
2024/01/17 12:10:12;;;;;;;;;;;180.10;2252.80;;;;;;4901455;29;19980;-83
2024/01/17 12:12:38;;;;;;;;;;;180.10;2252.80;;;;;;4914132;29;20424;-81
2024/01/17 12:15:07;;;;;;;;;;;180.10;2252.80;;;;;;4901348;29;19908;-78
2024/01/17 12:17:33;;;;;;;;;;;204.80;2252.80;;;;;;4901249;29;19911;-79
2024/01/17 12:20:00;;;;;;;;;;;204.80;2252.80;;;;;;4897446;29;19915;-83
2024/01/17 12:22:26;;;;;;;;;;;204.90;2252.80;;;;;;4901082;29;19926;-79
2024/01/17 12:24:53;;;;;;;;;;;204.90;2252.80;;;;;;4916747;29;19907;-79
2024/01/17 12:27:19;;;;;;;;;;;205.00;2252.80;;;;;;4913643;29;19926;-80
2024/01/17 12:29:47;;;;;;;;;;;205.00;2252.80;;;;;;4917967;29;19907;-82
2024/01/17 12:32:13;;;;;;;;;;;205.00;2252.80;;;;;;4901873;29;20304;-83
2024/01/17 12:34:40;;;;;;;;;;;205.00;2252.80;;;;;;4915560;29;20281;-81
2024/01/17 12:37:05;;;;;;;;;;;205.00;2252.80;;;;;;4899215;29;20047;-83
2024/01/17 12:39:34;;;;;;;;;;;205.00;2252.80;;;;;;4898091;29;19954;-83
2024/01/17 12:42:00;;;;;;;;;;;205.00;2252.80;;;;;;4917714;29;19990;-83
2024/01/17 12:44:25;;;;;;;;;;;205.00;2252.80;;;;;;4896873;29;19954;-84
2024/01/17 12:46:55;;;;;;;;;;;205.10;2252.80;;;;;;4900300;29;20391;-83
2024/01/17 12:49:21;;;;;;;;;;;205.10;2252.80;;;;;;4911432;29;19998;-83
2024/01/17 12:51:47;;;;;;;;;;;205.20;2252.80;;;;;;4901184;29;19911;-82
2024/01/17 12:54:17;;;;;;;;;;;205.20;2252.80;;;;;;4899162;29;19907;-83
2024/01/17 12:56:42;;;;;;;;;;;205.20;2252.80;;;;;;4915790;29;19943;-81
2024/01/17 12:59:08;;;;;;;;;;;205.30;2252.80;;;;;;4899559;29;19957;-82
2024/01/17 13:01:39;;;;;;;;;;;205.30;2252.80;;;;;;4896841;29;19933;-83
2024/01/17 13:04:08;;;;;;;;;;;205.40;2252.80;;;;;;4898032;29;20346;-83
2024/01/17 13:06:47;;;;;;;;;;;205.40;2252.80;;;;;;4911486;29;19915;-83
2024/01/17 13:09:17;;;;;;;;;;;205.40;2252.80;;;;;;4899900;29;20337;-82
2024/01/17 13:12:01;;;;;;;;;;;205.40;2252.80;;;;;;4898103;29;19908;-83
2024/01/17 13:14:29;;;;;;;;;;;205.40;2252.80;;;;;;4888615;29;20346;-83
2024/01/17 13:16:55;;;;;;;;;;;205.30;2252.80;;;;;;4900204;29;19911;-82
2024/01/17 13:19:21;;;;;;;;;;;205.30;2252.80;;;;;;4900766;29;20024;-80
2024/01/17 13:21:47;;;;;;;;;;;205.40;2252.80;;;;;;4900172;29;19919;-79
2024/01/17 13:24:13;;;;;;;;;;;205.40;2252.80;;;;;;4900564;29;20042;-80
2024/01/17 13:26:39;;;;;;;;;;;205.50;2252.80;;;;;;4900106;29;19915;-82
2024/01/17 13:29:05;;;;;;;;;;;205.40;2252.80;;;;;;4901917;29;19907;-82
2024/01/17 13:31:34;;;;;;;;;;;205.20;2252.80;;;;;;4918103;29;19907;-81
2024/01/17 13:34:00;;;;;;;;;;;205.40;2252.80;;;;;;4900433;29;19911;-81
2024/01/17 13:36:26;;;;;;;;;;;205.50;2252.80;;;;;;4892362;29;20440;-80
2024/01/17 13:38:53;;;;;;;;;;;205.50;2252.80;;;;;;4900655;29;19913;-80
2024/01/17 13:41:21;;;;;;;;;;;205.50;2252.80;;;;;;4914747;29;20353;-82
2024/01/17 13:43:50;;;;;;;;;;;205.50;2252.80;;;;;;4895975;29;19911;-81